sensor_id;sensor_type;location;lat;lon;timestamp;P1;durP1;ratioP1;P2;durP2;ratioP2
57337;SDS011;43173;50.980;18.204;2022-08-19T00:00:34;11.50;;;8.70;;
57337;SDS011;43173;50.980;18.204;2022-08-19T00:03:01;9.20;;;8.20;;
57337;SDS011;43173;50.980;18.204;2022-08-19T00:05:27;10.30;;;7.90;;
57337;SDS011;43173;50.980;18.204;2022-08-19T00:07:53;10.90;;;8.50;;
57337;SDS011;43173;50.980;18.204;2022-08-19T00:10:19;12.80;;;8.70;;
57337;SDS011;43173;50.980;18.204;2022-08-19T00:12:45;11.50;;;8.30;;
57337;SDS011;43173;50.980;18.204;2022-08-19T00:15:11;11.50;;;9.00;;
57337;SDS011;43173;50.980;18.204;2022-08-19T00:17:40;10.30;;;8.50;;
57337;SDS011;43173;50.980;18.204;2022-08-19T00:20:10;10.10;;;8.60;;
57337;SDS011;43173;50.980;18.204;2022-08-19T00:22:38;11.00;;;9.20;;
57337;SDS011;43173;50.980;18.204;2022-08-19T00:25:05;11.80;;;8.90;;
57337;SDS011;43173;50.980;18.204;2022-08-19T00:27:31;14.70;;;9.60;;
57337;SDS011;43173;50.980;18.204;2022-08-19T00:29:57;11.80;;;9.10;;
57337;SDS011;43173;50.980;18.204;2022-08-19T00:32:24;12.50;;;9.10;;
57337;SDS011;43173;50.980;18.204;2022-08-19T00:34:51;10.10;;;9.00;;
57337;SDS011;43173;50.980;18.204;2022-08-19T00:37:19;11.00;;;9.70;;
57337;SDS011;43173;50.980;18.204;2022-08-19T00:39:48;13.10;;;10.20;;
57337;SDS011;43173;50.980;18.204;2022-08-19T00:42:14;15.00;;;10.10;;
57337;SDS011;43173;50.980;18.204;2022-08-19T00:44:40;12.30;;;10.20;;
57337;SDS011;43173;50.980;18.204;2022-08-19T00:47:07;11.60;;;9.80;;
57337;SDS011;43173;50.980;18.204;2022-08-19T00:49:37;13.90;;;9.60;;
57337;SDS011;43173;50.980;18.204;2022-08-19T00:52:09;12.90;;;9.50;;
57337;SDS011;43173;50.980;18.204;2022-08-19T00:54:38;12.00;;;9.40;;
57337;SDS011;43173;50.980;18.204;2022-08-19T00:57:05;10.70;;;9.60;;
57337;SDS011;43173;50.980;18.204;2022-08-19T00:59:32;13.10;;;10.00;;
57337;SDS011;43173;50.980;18.204;2022-08-19T01:02:01;13.70;;;10.10;;
57337;SDS011;43173;50.980;18.204;2022-08-19T01:04:26;11.40;;;10.20;;
57337;SDS011;43173;50.980;18.204;2022-08-19T01:06:52;11.20;;;9.90;;
57337;SDS011;43173;50.980;18.204;2022-08-19T01:09:17;11.70;;;10.10;;
57337;SDS011;43173;50.980;18.204;2022-08-19T01:11:43;13.40;;;10.90;;
57337;SDS011;43173;50.980;18.204;2022-08-19T01:14:10;14.60;;;10.50;;
57337;SDS011;43173;50.980;18.204;2022-08-19T01:16:36;13.70;;;10.70;;
57337;SDS011;43173;50.980;18.204;2022-08-19T01:19:03;11.60;;;10.30;;
57337;SDS011;43173;50.980;18.204;2022-08-19T01:21:46;13.00;;;10.80;;
57337;SDS011;43173;50.980;18.204;2022-08-19T01:24:18;13.50;;;11.10;;
57337;SDS011;43173;50.980;18.204;2022-08-19T01:26:44;12.80;;;10.90;;
57337;SDS011;43173;50.980;18.204;2022-08-19T01:29:12;13.90;;;11.00;;
57337;SDS011;43173;50.980;18.204;2022-08-19T01:31:38;12.20;;;10.80;;
57337;SDS011;43173;50.980;18.204;2022-08-19T01:34:04;12.00;;;10.80;;
57337;SDS011;43173;50.980;18.204;2022-08-19T01:36:37;13.30;;;10.90;;
57337;SDS011;43173;50.980;18.204;2022-08-19T01:39:09;15.30;;;11.80;;
57337;SDS011;43173;50.980;18.204;2022-08-19T01:41:37;15.60;;;11.30;;
57337;SDS011;43173;50.980;18.204;2022-08-19T01:44:03;21.60;;;11.80;;
57337;SDS011;43173;50.980;18.204;2022-08-19T01:46:31;13.00;;;11.20;;
57337;SDS011;43173;50.980;18.204;2022-08-19T01:48:57;15.50;;;12.00;;
57337;SDS011;43173;50.980;18.204;2022-08-19T01:51:23;16.60;;;11.70;;
57337;SDS011;43173;50.980;18.204;2022-08-19T01:53:50;16.50;;;12.20;;
57337;SDS011;43173;50.980;18.204;2022-08-19T01:56:17;17.20;;;12.60;;
57337;SDS011;43173;50.980;18.204;2022-08-19T01:58:44;17.30;;;11.70;;
57337;SDS011;43173;50.980;18.204;2022-08-19T02:01:13;17.00;;;11.90;;
57337;SDS011;43173;50.980;18.204;2022-08-19T02:03:39;13.40;;;12.00;;
57337;SDS011;43173;50.980;18.204;2022-08-19T02:06:05;14.70;;;12.50;;
57337;SDS011;43173;50.980;18.204;2022-08-19T02:08:31;13.60;;;12.10;;
57337;SDS011;43173;50.980;18.204;2022-08-19T02:10:58;17.10;;;12.30;;
57337;SDS011;43173;50.980;18.204;2022-08-19T02:13:24;15.70;;;12.20;;
57337;SDS011;43173;50.980;18.204;2022-08-19T02:15:50;15.20;;;12.20;;
57337;SDS011;43173;50.980;18.204;2022-08-19T02:18:16;14.00;;;12.60;;
57337;SDS011;43173;50.980;18.204;2022-08-19T02:20:42;16.60;;;12.30;;
57337;SDS011;43173;50.980;18.204;2022-08-19T02:23:11;14.80;;;12.20;;
57337;SDS011;43173;50.980;18.204;2022-08-19T02:25:38;13.60;;;12.10;;
57337;SDS011;43173;50.980;18.204;2022-08-19T02:28:04;14.80;;;12.60;;
57337;SDS011;43173;50.980;18.204;2022-08-19T02:30:30;17.20;;;12.10;;
57337;SDS011;43173;50.980;18.204;2022-08-19T02:32:56;16.70;;;12.40;;
57337;SDS011;43173;50.980;18.204;2022-08-19T02:35:23;17.10;;;13.50;;
57337;SDS011;43173;50.980;18.204;2022-08-19T02:37:48;16.30;;;12.60;;
57337;SDS011;43173;50.980;18.204;2022-08-19T02:40:30;17.90;;;13.30;;
57337;SDS011;43173;50.980;18.204;2022-08-19T02:43:00;14.20;;;12.80;;
57337;SDS011;43173;50.980;18.204;2022-08-19T02:45:31;15.40;;;13.00;;
57337;SDS011;43173;50.980;18.204;2022-08-19T02:48:00;15.30;;;12.80;;
57337;SDS011;43173;50.980;18.204;2022-08-19T02:50:28;16.40;;;12.90;;
57337;SDS011;43173;50.980;18.204;2022-08-19T02:52:54;18.10;;;13.00;;
57337;SDS011;43173;50.980;18.204;2022-08-19T02:55:20;16.10;;;13.30;;
57337;SDS011;43173;50.980;18.204;2022-08-19T02:57:46;14.30;;;12.60;;
57337;SDS011;43173;50.980;18.204;2022-08-19T03:00:12;15.10;;;13.20;;
57337;SDS011;43173;50.980;18.204;2022-08-19T03:02:38;15.20;;;13.00;;
57337;SDS011;43173;50.980;18.204;2022-08-19T03:05:04;16.90;;;13.00;;
57337;SDS011;43173;50.980;18.204;2022-08-19T03:07:31;16.90;;;13.20;;
57337;SDS011;43173;50.980;18.204;2022-08-19T03:09:57;14.40;;;12.80;;
57337;SDS011;43173;50.980;18.204;2022-08-19T03:12:23;15.60;;;13.90;;
57337;SDS011;43173;50.980;18.204;2022-08-19T03:14:49;18.40;;;13.20;;
57337;SDS011;43173;50.980;18.204;2022-08-19T03:17:16;18.30;;;13.10;;
57337;SDS011;43173;50.980;18.204;2022-08-19T03:19:41;15.60;;;13.00;;
57337;SDS011;43173;50.980;18.204;2022-08-19T03:22:08;16.30;;;13.90;;
57337;SDS011;43173;50.980;18.204;2022-08-19T03:24:34;16.00;;;13.50;;
57337;SDS011;43173;50.980;18.204;2022-08-19T03:26:59;16.90;;;13.60;;
57337;SDS011;43173;50.980;18.204;2022-08-19T03:29:26;24.20;;;14.10;;
57337;SDS011;43173;50.980;18.204;2022-08-19T03:31:53;18.20;;;13.60;;
57337;SDS011;43173;50.980;18.204;2022-08-19T03:34:21;17.80;;;14.20;;
57337;SDS011;43173;50.980;18.204;2022-08-19T03:36:52;16.20;;;14.50;;
57337;SDS011;43173;50.980;18.204;2022-08-19T03:39:20;18.10;;;14.00;;
57337;SDS011;43173;50.980;18.204;2022-08-19T03:41:46;15.90;;;14.10;;
57337;SDS011;43173;50.980;18.204;2022-08-19T03:44:21;15.90;;;14.00;;
57337;SDS011;43173;50.980;18.204;2022-08-19T03:46:51;19.50;;;13.70;;
57337;SDS011;43173;50.980;18.204;2022-08-19T03:49:18;18.20;;;14.20;;
57337;SDS011;43173;50.980;18.204;2022-08-19T03:51:45;17.70;;;13.60;;
57337;SDS011;43173;50.980;18.204;2022-08-19T03:54:13;17.80;;;13.70;;
57337;SDS011;43173;50.980;18.204;2022-08-19T03:56:41;16.60;;;13.90;;
57337;SDS011;43173;50.980;18.204;2022-08-19T03:59:09;17.10;;;14.50;;
57337;SDS011;43173;50.980;18.204;2022-08-19T04:01:36;17.00;;;14.40;;
57337;SDS011;43173;50.980;18.204;2022-08-19T04:04:02;15.80;;;13.00;;
57337;SDS011;43173;50.980;18.204;2022-08-19T04:06:29;22.20;;;14.20;;
57337;SDS011;43173;50.980;18.204;2022-08-19T04:08:58;18.40;;;14.70;;
57337;SDS011;43173;50.980;18.204;2022-08-19T04:11:27;15.90;;;13.80;;
57337;SDS011;43173;50.980;18.204;2022-08-19T04:13:54;17.10;;;14.40;;
57337;SDS011;43173;50.980;18.204;2022-08-19T04:16:21;17.80;;;13.40;;
57337;SDS011;43173;50.980;18.204;2022-08-19T04:18:54;18.20;;;14.50;;
57337;SDS011;43173;50.980;18.204;2022-08-19T04:21:22;17.20;;;14.00;;
57337;SDS011;43173;50.980;18.204;2022-08-19T04:23:49;18.40;;;13.50;;
57337;SDS011;43173;50.980;18.204;2022-08-19T04:26:15;18.70;;;13.20;;
57337;SDS011;43173;50.980;18.204;2022-08-19T04:28:43;18.10;;;14.10;;
57337;SDS011;43173;50.980;18.204;2022-08-19T04:31:16;16.20;;;14.30;;
57337;SDS011;43173;50.980;18.204;2022-08-19T04:33:44;16.00;;;13.50;;
57337;SDS011;43173;50.980;18.204;2022-08-19T04:38:53;19.40;;;13.90;;
57337;SDS011;43173;50.980;18.204;2022-08-19T04:41:20;18.30;;;14.00;;
57337;SDS011;43173;50.980;18.204;2022-08-19T04:44:02;17.10;;;13.40;;
57337;SDS011;43173;50.980;18.204;2022-08-19T04:48:57;18.10;;;13.40;;
57337;SDS011;43173;50.980;18.204;2022-08-19T04:51:24;17.00;;;12.80;;
57337;SDS011;43173;50.980;18.204;2022-08-19T04:53:50;17.80;;;13.20;;
57337;SDS011;43173;50.980;18.204;2022-08-19T04:56:18;18.40;;;13.60;;
57337;SDS011;43173;50.980;18.204;2022-08-19T04:58:51;20.10;;;13.40;;
57337;SDS011;43173;50.980;18.204;2022-08-19T05:01:19;18.20;;;13.30;;
57337;SDS011;43173;50.980;18.204;2022-08-19T05:03:47;18.50;;;12.80;;
57337;SDS011;43173;50.980;18.204;2022-08-19T05:06:14;16.00;;;12.60;;
57337;SDS011;43173;50.980;18.204;2022-08-19T05:08:41;20.60;;;13.70;;
57337;SDS011;43173;50.980;18.204;2022-08-19T05:11:42;15.30;;;13.60;;
57337;SDS011;43173;50.980;18.204;2022-08-19T05:14:04;20.10;;;13.70;;
57337;SDS011;43173;50.980;18.204;2022-08-19T05:16:30;15.30;;;13.30;;
57337;SDS011;43173;50.980;18.204;2022-08-19T05:18:56;16.70;;;13.60;;
57337;SDS011;43173;50.980;18.204;2022-08-19T05:21:38;16.10;;;12.60;;
57337;SDS011;43173;50.980;18.204;2022-08-19T05:24:21;19.20;;;13.20;;
57337;SDS011;43173;50.980;18.204;2022-08-19T05:26:49;15.40;;;13.00;;
57337;SDS011;43173;50.980;18.204;2022-08-19T05:29:17;17.10;;;12.40;;
57337;SDS011;43173;50.980;18.204;2022-08-19T05:31:45;16.90;;;12.70;;
57337;SDS011;43173;50.980;18.204;2022-08-19T05:34:14;14.40;;;12.00;;
57337;SDS011;43173;50.980;18.204;2022-08-19T05:36:41;16.10;;;13.10;;
57337;SDS011;43173;50.980;18.204;2022-08-19T05:39:11;17.70;;;11.70;;
57337;SDS011;43173;50.980;18.204;2022-08-19T05:41:45;14.10;;;12.50;;
57337;SDS011;43173;50.980;18.204;2022-08-19T05:44:12;15.80;;;12.10;;
57337;SDS011;43173;50.980;18.204;2022-08-19T05:46:39;14.40;;;11.20;;
57337;SDS011;43173;50.980;18.204;2022-08-19T05:49:05;13.70;;;11.50;;
57337;SDS011;43173;50.980;18.204;2022-08-19T05:51:32;14.90;;;11.80;;
57337;SDS011;43173;50.980;18.204;2022-08-19T05:53:59;15.00;;;11.40;;
57337;SDS011;43173;50.980;18.204;2022-08-19T05:56:29;13.60;;;11.20;;
57337;SDS011;43173;50.980;18.204;2022-08-19T05:58:56;16.80;;;11.40;;
57337;SDS011;43173;50.980;18.204;2022-08-19T06:01:24;13.00;;;11.00;;
57337;SDS011;43173;50.980;18.204;2022-08-19T06:03:50;13.00;;;11.50;;
57337;SDS011;43173;50.980;18.204;2022-08-19T06:06:16;14.90;;;10.50;;
57337;SDS011;43173;50.980;18.204;2022-08-19T06:08:42;17.00;;;10.90;;
57337;SDS011;43173;50.980;18.204;2022-08-19T06:13:40;14.80;;;10.50;;
57337;SDS011;43173;50.980;18.204;2022-08-19T06:16:05;13.20;;;10.60;;
57337;SDS011;43173;50.980;18.204;2022-08-19T06:18:31;13.00;;;10.70;;
57337;SDS011;43173;50.980;18.204;2022-08-19T06:20:58;12.60;;;10.50;;
57337;SDS011;43173;50.980;18.204;2022-08-19T06:23:24;13.70;;;9.60;;
57337;SDS011;43173;50.980;18.204;2022-08-19T06:25:50;14.00;;;9.90;;
57337;SDS011;43173;50.980;18.204;2022-08-19T06:28:16;15.90;;;10.10;;
57337;SDS011;43173;50.980;18.204;2022-08-19T06:30:42;13.40;;;9.90;;
57337;SDS011;43173;50.980;18.204;2022-08-19T06:33:07;16.00;;;9.80;;
57337;SDS011;43173;50.980;18.204;2022-08-19T06:35:38;13.70;;;9.30;;
57337;SDS011;43173;50.980;18.204;2022-08-19T06:38:04;11.50;;;10.20;;
57337;SDS011;43173;50.980;18.204;2022-08-19T06:40:30;14.90;;;9.60;;
57337;SDS011;43173;50.980;18.204;2022-08-19T06:42:56;16.40;;;9.90;;
57337;SDS011;43173;50.980;18.204;2022-08-19T06:45:24;12.30;;;9.70;;
57337;SDS011;43173;50.980;18.204;2022-08-19T06:47:49;16.10;;;9.60;;
57337;SDS011;43173;50.980;18.204;2022-08-19T06:50:19;12.30;;;8.90;;
57337;SDS011;43173;50.980;18.204;2022-08-19T06:52:45;12.90;;;9.50;;
57337;SDS011;43173;50.980;18.204;2022-08-19T06:55:12;13.60;;;9.80;;
57337;SDS011;43173;50.980;18.204;2022-08-19T06:57:37;16.50;;;9.80;;
57337;SDS011;43173;50.980;18.204;2022-08-19T07:00:04;14.00;;;9.20;;
57337;SDS011;43173;50.980;18.204;2022-08-19T07:02:30;10.60;;;8.90;;
57337;SDS011;43173;50.980;18.204;2022-08-19T07:04:56;13.70;;;9.00;;
57337;SDS011;43173;50.980;18.204;2022-08-19T07:07:30;11.30;;;8.90;;
57337;SDS011;43173;50.980;18.204;2022-08-19T07:09:56;14.40;;;9.20;;
57337;SDS011;43173;50.980;18.204;2022-08-19T07:12:22;16.30;;;8.60;;
57337;SDS011;43173;50.980;18.204;2022-08-19T07:14:48;13.30;;;9.00;;
57337;SDS011;43173;50.980;18.204;2022-08-19T07:17:14;14.10;;;7.90;;
57337;SDS011;43173;50.980;18.204;2022-08-19T07:19:41;13.60;;;8.70;;
57337;SDS011;43173;50.980;18.204;2022-08-19T07:22:07;11.20;;;8.30;;
57337;SDS011;43173;50.980;18.204;2022-08-19T07:24:34;14.60;;;8.30;;
57337;SDS011;43173;50.980;18.204;2022-08-19T07:27:01;9.80;;;8.00;;
57337;SDS011;43173;50.980;18.204;2022-08-19T07:29:29;16.10;;;8.00;;
57337;SDS011;43173;50.980;18.204;2022-08-19T07:31:56;10.00;;;7.60;;
57337;SDS011;43173;50.980;18.204;2022-08-19T07:34:24;14.10;;;7.70;;
57337;SDS011;43173;50.980;18.204;2022-08-19T07:36:51;14.60;;;7.70;;
57337;SDS011;43173;50.980;18.204;2022-08-19T07:39:36;15.60;;;8.20;;
57337;SDS011;43173;50.980;18.204;2022-08-19T07:42:03;9.90;;;7.20;;
57337;SDS011;43173;50.980;18.204;2022-08-19T07:44:32;10.70;;;7.40;;
57337;SDS011;43173;50.980;18.204;2022-08-19T07:46:59;11.40;;;7.40;;
57337;SDS011;43173;50.980;18.204;2022-08-19T07:49:25;11.80;;;7.80;;
57337;SDS011;43173;50.980;18.204;2022-08-19T07:51:59;11.40;;;7.70;;
57337;SDS011;43173;50.980;18.204;2022-08-19T07:54:31;10.90;;;7.60;;
57337;SDS011;43173;50.980;18.204;2022-08-19T07:56:59;12.40;;;7.70;;
57337;SDS011;43173;50.980;18.204;2022-08-19T07:59:25;11.40;;;7.70;;
57337;SDS011;43173;50.980;18.204;2022-08-19T08:01:51;11.60;;;7.60;;
57337;SDS011;43173;50.980;18.204;2022-08-19T08:04:18;10.20;;;7.30;;
57337;SDS011;43173;50.980;18.204;2022-08-19T08:06:59;13.70;;;7.60;;
57337;SDS011;43173;50.980;18.204;2022-08-19T08:09:41;13.40;;;7.20;;
57337;SDS011;43173;50.980;18.204;2022-08-19T08:12:10;12.30;;;7.50;;
57337;SDS011;43173;50.980;18.204;2022-08-19T08:14:41;12.00;;;7.40;;
57337;SDS011;43173;50.980;18.204;2022-08-19T08:17:29;11.80;;;7.60;;
57337;SDS011;43173;50.980;18.204;2022-08-19T08:19:57;12.00;;;7.40;;
57337;SDS011;43173;50.980;18.204;2022-08-19T08:22:23;11.70;;;7.30;;
57337;SDS011;43173;50.980;18.204;2022-08-19T08:27:49;13.30;;;7.60;;
57337;SDS011;43173;50.980;18.204;2022-08-19T08:30:17;12.10;;;7.50;;
57337;SDS011;43173;50.980;18.204;2022-08-19T08:32:44;13.30;;;7.50;;
57337;SDS011;43173;50.980;18.204;2022-08-19T08:35:11;11.60;;;7.10;;
57337;SDS011;43173;50.980;18.204;2022-08-19T08:37:39;11.50;;;7.70;;
57337;SDS011;43173;50.980;18.204;2022-08-19T08:40:27;10.70;;;6.90;;
57337;SDS011;43173;50.980;18.204;2022-08-19T08:43:09;12.30;;;7.20;;
57337;SDS011;43173;50.980;18.204;2022-08-19T08:45:55;10.40;;;7.30;;
57337;SDS011;43173;50.980;18.204;2022-08-19T08:53:54;11.80;;;6.80;;
57337;SDS011;43173;50.980;18.204;2022-08-19T08:56:20;15.10;;;6.40;;
57337;SDS011;43173;50.980;18.204;2022-08-19T08:58:48;12.20;;;6.70;;
57337;SDS011;43173;50.980;18.204;2022-08-19T09:01:17;13.10;;;6.40;;
57337;SDS011;43173;50.980;18.204;2022-08-19T09:03:43;12.30;;;6.40;;
57337;SDS011;43173;50.980;18.204;2022-08-19T09:06:12;10.70;;;6.20;;
57337;SDS011;43173;50.980;18.204;2022-08-19T09:08:40;10.80;;;5.70;;
57337;SDS011;43173;50.980;18.204;2022-08-19T09:11:10;9.90;;;5.20;;
57337;SDS011;43173;50.980;18.204;2022-08-19T09:13:42;7.90;;;4.80;;
57337;SDS011;43173;50.980;18.204;2022-08-19T09:16:14;11.10;;;5.00;;
57337;SDS011;43173;50.980;18.204;2022-08-19T09:18:46;11.80;;;5.50;;
57337;SDS011;43173;50.980;18.204;2022-08-19T09:21:18;11.00;;;5.00;;
57337;SDS011;43173;50.980;18.204;2022-08-19T09:23:44;9.00;;;4.70;;
57337;SDS011;43173;50.980;18.204;2022-08-19T09:26:11;8.90;;;4.60;;
57337;SDS011;43173;50.980;18.204;2022-08-19T09:28:42;8.90;;;5.20;;
57337;SDS011;43173;50.980;18.204;2022-08-19T09:31:18;13.00;;;5.10;;
57337;SDS011;43173;50.980;18.204;2022-08-19T09:33:46;12.50;;;5.90;;
57337;SDS011;43173;50.980;18.204;2022-08-19T09:36:13;10.00;;;5.50;;
57337;SDS011;43173;50.980;18.204;2022-08-19T09:38:40;15.30;;;5.90;;
57337;SDS011;43173;50.980;18.204;2022-08-19T09:41:08;11.70;;;5.80;;
57337;SDS011;43173;50.980;18.204;2022-08-19T09:43:42;14.60;;;6.40;;
57337;SDS011;43173;50.980;18.204;2022-08-19T09:46:10;12.70;;;6.10;;
57337;SDS011;43173;50.980;18.204;2022-08-19T09:48:40;12.60;;;5.80;;
57337;SDS011;43173;50.980;18.204;2022-08-19T09:51:12;11.10;;;6.20;;
57337;SDS011;43173;50.980;18.204;2022-08-19T09:53:43;10.40;;;5.70;;
57337;SDS011;43173;50.980;18.204;2022-08-19T09:56:09;12.50;;;5.90;;
57337;SDS011;43173;50.980;18.204;2022-08-19T09:58:36;13.20;;;5.90;;
57337;SDS011;43173;50.980;18.204;2022-08-19T10:01:03;12.90;;;6.00;;
57337;SDS011;43173;50.980;18.204;2022-08-19T10:03:30;13.40;;;5.80;;
57337;SDS011;43173;50.980;18.204;2022-08-19T10:05:57;9.00;;;6.60;;
57337;SDS011;43173;50.980;18.204;2022-08-19T10:08:28;9.70;;;6.10;;
57337;SDS011;43173;50.980;18.204;2022-08-19T10:10:56;13.80;;;6.00;;
57337;SDS011;43173;50.980;18.204;2022-08-19T10:13:23;12.70;;;5.70;;
57337;SDS011;43173;50.980;18.204;2022-08-19T10:15:51;9.80;;;5.40;;
57337;SDS011;43173;50.980;18.204;2022-08-19T10:18:19;9.30;;;6.10;;
57337;SDS011;43173;50.980;18.204;2022-08-19T10:20:46;14.10;;;5.90;;
57337;SDS011;43173;50.980;18.204;2022-08-19T10:23:13;8.00;;;5.10;;
57337;SDS011;43173;50.980;18.204;2022-08-19T10:25:40;12.20;;;5.40;;
57337;SDS011;43173;50.980;18.204;2022-08-19T10:28:07;9.20;;;5.10;;
57337;SDS011;43173;50.980;18.204;2022-08-19T10:30:33;11.50;;;5.70;;
57337;SDS011;43173;50.980;18.204;2022-08-19T10:33:00;11.00;;;5.30;;
57337;SDS011;43173;50.980;18.204;2022-08-19T10:35:26;10.00;;;5.20;;
57337;SDS011;43173;50.980;18.204;2022-08-19T10:37:53;10.80;;;5.50;;
57337;SDS011;43173;50.980;18.204;2022-08-19T10:40:19;11.20;;;5.90;;
57337;SDS011;43173;50.980;18.204;2022-08-19T10:42:45;11.30;;;6.40;;
57337;SDS011;43173;50.980;18.204;2022-08-19T10:45:10;9.60;;;4.90;;
57337;SDS011;43173;50.980;18.204;2022-08-19T10:47:36;11.40;;;5.30;;
57337;SDS011;43173;50.980;18.204;2022-08-19T10:50:02;13.50;;;5.60;;
57337;SDS011;43173;50.980;18.204;2022-08-19T10:52:45;10.00;;;5.30;;
57337;SDS011;43173;50.980;18.204;2022-08-19T10:55:13;10.10;;;5.40;;
57337;SDS011;43173;50.980;18.204;2022-08-19T10:57:54;12.10;;;5.70;;
57337;SDS011;43173;50.980;18.204;2022-08-19T11:00:20;11.60;;;5.80;;
57337;SDS011;43173;50.980;18.204;2022-08-19T11:02:48;20.80;;;6.40;;
57337;SDS011;43173;50.980;18.204;2022-08-19T11:05:14;12.60;;;6.50;;
57337;SDS011;43173;50.980;18.204;2022-08-19T11:07:40;13.10;;;6.10;;
57337;SDS011;43173;50.980;18.204;2022-08-19T11:10:08;8.80;;;6.40;;
57337;SDS011;43173;50.980;18.204;2022-08-19T11:12:38;10.10;;;6.60;;
57337;SDS011;43173;50.980;18.204;2022-08-19T11:15:06;12.50;;;7.00;;
57337;SDS011;43173;50.980;18.204;2022-08-19T11:17:37;14.10;;;7.00;;
57337;SDS011;43173;50.980;18.204;2022-08-19T11:20:06;13.10;;;6.80;;
57337;SDS011;43173;50.980;18.204;2022-08-19T11:22:33;13.60;;;6.70;;
57337;SDS011;43173;50.980;18.204;2022-08-19T11:25:00;11.70;;;6.70;;
57337;SDS011;43173;50.980;18.204;2022-08-19T11:27:26;12.90;;;6.70;;
57337;SDS011;43173;50.980;18.204;2022-08-19T11:29:54;10.10;;;6.10;;
57337;SDS011;43173;50.980;18.204;2022-08-19T11:32:20;13.50;;;6.00;;
57337;SDS011;43173;50.980;18.204;2022-08-19T11:34:45;18.60;;;5.90;;
57337;SDS011;43173;50.980;18.204;2022-08-19T11:37:11;16.20;;;6.40;;
57337;SDS011;43173;50.980;18.204;2022-08-19T11:39:37;11.90;;;6.40;;
57337;SDS011;43173;50.980;18.204;2022-08-19T11:42:04;12.30;;;6.60;;
57337;SDS011;43173;50.980;18.204;2022-08-19T11:44:45;15.80;;;6.70;;
57337;SDS011;43173;50.980;18.204;2022-08-19T11:47:11;12.50;;;6.90;;
57337;SDS011;43173;50.980;18.204;2022-08-19T11:49:37;12.90;;;6.90;;
57337;SDS011;43173;50.980;18.204;2022-08-19T11:52:03;16.30;;;7.40;;
57337;SDS011;43173;50.980;18.204;2022-08-19T11:54:29;10.70;;;6.30;;
57337;SDS011;43173;50.980;18.204;2022-08-19T11:56:55;12.20;;;6.10;;
57337;SDS011;43173;50.980;18.204;2022-08-19T11:59:21;13.60;;;6.90;;
57337;SDS011;43173;50.980;18.204;2022-08-19T12:01:47;15.70;;;6.60;;
57337;SDS011;43173;50.980;18.204;2022-08-19T12:04:12;12.90;;;7.00;;
57337;SDS011;43173;50.980;18.204;2022-08-19T12:06:38;12.30;;;6.80;;
57337;SDS011;43173;50.980;18.204;2022-08-19T12:09:05;12.50;;;7.40;;
57337;SDS011;43173;50.980;18.204;2022-08-19T12:11:33;12.10;;;7.40;;
57337;SDS011;43173;50.980;18.204;2022-08-19T12:13:59;14.00;;;7.70;;
57337;SDS011;43173;50.980;18.204;2022-08-19T12:16:26;13.10;;;7.60;;
57337;SDS011;43173;50.980;18.204;2022-08-19T12:18:53;12.60;;;7.10;;
57337;SDS011;43173;50.980;18.204;2022-08-19T12:21:22;11.90;;;6.90;;
57337;SDS011;43173;50.980;18.204;2022-08-19T12:23:50;18.30;;;6.90;;
57337;SDS011;43173;50.980;18.204;2022-08-19T12:26:16;15.60;;;7.10;;
57337;SDS011;43173;50.980;18.204;2022-08-19T12:28:42;13.80;;;6.90;;
57337;SDS011;43173;50.980;18.204;2022-08-19T12:31:09;11.50;;;7.10;;
57337;SDS011;43173;50.980;18.204;2022-08-19T12:33:37;17.00;;;7.00;;
57337;SDS011;43173;50.980;18.204;2022-08-19T12:36:05;12.40;;;6.80;;
57337;SDS011;43173;50.980;18.204;2022-08-19T12:38:32;11.30;;;6.90;;
57337;SDS011;43173;50.980;18.204;2022-08-19T12:40:59;10.60;;;7.20;;
57337;SDS011;43173;50.980;18.204;2022-08-19T12:43:25;16.60;;;7.30;;
57337;SDS011;43173;50.980;18.204;2022-08-19T12:45:52;12.70;;;7.40;;
57337;SDS011;43173;50.980;18.204;2022-08-19T12:48:17;11.80;;;6.70;;
57337;SDS011;43173;50.980;18.204;2022-08-19T12:50:44;13.30;;;6.70;;
57337;SDS011;43173;50.980;18.204;2022-08-19T12:53:11;16.80;;;7.00;;
57337;SDS011;43173;50.980;18.204;2022-08-19T12:55:37;11.20;;;6.90;;
57337;SDS011;43173;50.980;18.204;2022-08-19T12:58:03;11.20;;;7.10;;
57337;SDS011;43173;50.980;18.204;2022-08-19T13:00:29;20.60;;;7.20;;
57337;SDS011;43173;50.980;18.204;2022-08-19T13:02:58;10.60;;;6.30;;
57337;SDS011;43173;50.980;18.204;2022-08-19T13:05:25;15.90;;;7.00;;
57337;SDS011;43173;50.980;18.204;2022-08-19T13:07:53;11.60;;;6.70;;
57337;SDS011;43173;50.980;18.204;2022-08-19T13:10:23;14.70;;;7.20;;
57337;SDS011;43173;50.980;18.204;2022-08-19T13:12:52;12.60;;;6.20;;
57337;SDS011;43173;50.980;18.204;2022-08-19T13:15:19;10.80;;;6.50;;
57337;SDS011;43173;50.980;18.204;2022-08-19T13:17:49;12.90;;;6.80;;
57337;SDS011;43173;50.980;18.204;2022-08-19T13:20:17;9.60;;;6.60;;
57337;SDS011;43173;50.980;18.204;2022-08-19T13:22:45;11.70;;;5.90;;
57337;SDS011;43173;50.980;18.204;2022-08-19T13:25:11;10.30;;;6.90;;
57337;SDS011;43173;50.980;18.204;2022-08-19T13:27:38;9.70;;;6.50;;
57337;SDS011;43173;50.980;18.204;2022-08-19T13:30:05;12.60;;;6.50;;
57337;SDS011;43173;50.980;18.204;2022-08-19T13:32:48;9.20;;;6.90;;
57337;SDS011;43173;50.980;18.204;2022-08-19T13:35:30;15.50;;;6.60;;
57337;SDS011;43173;50.980;18.204;2022-08-19T13:37:55;10.40;;;6.50;;
57337;SDS011;43173;50.980;18.204;2022-08-19T13:40:22;8.30;;;6.30;;
57337;SDS011;43173;50.980;18.204;2022-08-19T13:42:52;8.60;;;5.70;;
57337;SDS011;43173;50.980;18.204;2022-08-19T13:45:20;12.30;;;6.60;;
57337;SDS011;43173;50.980;18.204;2022-08-19T13:47:48;12.00;;;6.50;;
57337;SDS011;43173;50.980;18.204;2022-08-19T13:50:17;13.30;;;6.60;;
57337;SDS011;43173;50.980;18.204;2022-08-19T13:52:44;11.10;;;6.10;;
57337;SDS011;43173;50.980;18.204;2022-08-19T13:55:11;9.90;;;6.50;;
57337;SDS011;43173;50.980;18.204;2022-08-19T13:57:37;9.80;;;6.00;;
57337;SDS011;43173;50.980;18.204;2022-08-19T14:02:35;9.40;;;6.10;;
57337;SDS011;43173;50.980;18.204;2022-08-19T14:05:04;10.40;;;6.30;;
57337;SDS011;43173;50.980;18.204;2022-08-19T14:07:31;9.50;;;6.40;;
57337;SDS011;43173;50.980;18.204;2022-08-19T14:09:57;9.70;;;6.20;;
57337;SDS011;43173;50.980;18.204;2022-08-19T14:12:22;14.10;;;5.50;;
57337;SDS011;43173;50.980;18.204;2022-08-19T14:14:48;12.60;;;5.20;;
57337;SDS011;43173;50.980;18.204;2022-08-19T14:17:14;14.10;;;5.70;;
57337;SDS011;43173;50.980;18.204;2022-08-19T14:19:40;9.70;;;5.60;;
57337;SDS011;43173;50.980;18.204;2022-08-19T14:22:07;10.00;;;5.10;;
57337;SDS011;43173;50.980;18.204;2022-08-19T14:24:32;10.80;;;5.40;;
57337;SDS011;43173;50.980;18.204;2022-08-19T14:26:58;10.70;;;6.30;;
57337;SDS011;43173;50.980;18.204;2022-08-19T14:29:24;10.20;;;6.20;;
57337;SDS011;43173;50.980;18.204;2022-08-19T14:31:50;10.70;;;6.40;;
57337;SDS011;43173;50.980;18.204;2022-08-19T14:34:16;9.80;;;7.00;;
57337;SDS011;43173;50.980;18.204;2022-08-19T14:36:41;12.10;;;6.70;;
57337;SDS011;43173;50.980;18.204;2022-08-19T14:39:07;15.20;;;6.90;;
57337;SDS011;43173;50.980;18.204;2022-08-19T14:41:35;13.10;;;6.70;;